createdAt,value
2023-05-10T00:01:04.492Z,100636.34
2023-05-10T00:03:34.064Z,100632.88
2023-05-10T00:06:02.244Z,100635.69
2023-05-10T00:08:30.288Z,100639.50
2023-05-10T00:10:58.367Z,100637.03
2023-05-10T00:13:26.625Z,100621.78
2023-05-10T00:15:54.913Z,100630.25
2023-05-10T00:18:22.998Z,100623.34
2023-05-10T00:20:52.629Z,100623.44
2023-05-10T00:23:20.682Z,100621.72
2023-05-10T00:25:48.735Z,100624.69
2023-05-10T00:28:16.836Z,100619.50
2023-05-10T00:30:44.916Z,100617.75
2023-05-10T00:33:13.563Z,100612.34
2023-05-10T00:35:41.725Z,100616.03
2023-05-10T00:38:11.166Z,100606.28
2023-05-10T00:40:39.333Z,100613.78
2023-05-10T00:43:07.452Z,100607.50
2023-05-10T00:45:37.317Z,100601.34
2023-05-10T00:48:05.952Z,100597.91
2023-05-10T00:50:34.795Z,100595.28
2023-05-10T00:53:03.082Z,100591.84
2023-05-10T00:55:33.134Z,100593.91
2023-05-10T00:58:01.358Z,100595.03
2023-05-10T01:00:30.638Z,100600.56
2023-05-10T01:02:59.067Z,100596.13
2023-05-10T01:05:28.366Z,100583.91
2023-05-10T01:07:56.421Z,100586.84
2023-05-10T01:10:24.637Z,100576.16
2023-05-10T01:12:54.396Z,100584.50
2023-05-10T01:15:22.794Z,100583.00
2023-05-10T01:17:51.011Z,100578.81
2023-05-10T01:20:19.334Z,100580.88
2023-05-10T01:23:20.828Z,100579.25
2023-05-10T01:26:14.002Z,100581.88
2023-05-10T01:29:00.343Z,100575.81
2023-05-10T01:31:40.730Z,100580.34
2023-05-10T01:34:11.755Z,100580.47
2023-05-10T01:36:45.682Z,100577.25
2023-05-10T01:39:18.311Z,100573.03
2023-05-10T01:41:50.044Z,100575.84
2023-05-10T01:44:23.427Z,100573.16
2023-05-10T01:46:55.315Z,100571.31
2023-05-10T01:49:28.510Z,100567.00
2023-05-10T01:52:01.541Z,100563.44
2023-05-10T01:54:30.891Z,100557.91
2023-05-10T01:57:04.109Z,100557.06
2023-05-10T01:59:37.227Z,100558.03
2023-05-10T02:02:07.005Z,100564.41
2023-05-10T02:04:37.389Z,100560.00
2023-05-10T02:07:06.103Z,100561.72
2023-05-10T02:09:35.078Z,100557.41
2023-05-10T02:12:05.940Z,100553.84
2023-05-10T02:14:37.246Z,100562.94
2023-05-10T02:17:07.644Z,100561.09
2023-05-10T02:19:38.884Z,100566.38
2023-05-10T02:22:07.823Z,100559.38
2023-05-10T02:24:36.978Z,100565.84
2023-05-10T02:27:06.602Z,100564.13
2023-05-10T02:29:35.515Z,100562.28
2023-05-10T02:32:04.560Z,100561.41
2023-05-10T02:34:33.378Z,100552.69
2023-05-10T02:37:04.233Z,100554.50
2023-05-10T02:39:33.831Z,100552.69
2023-05-10T02:42:02.626Z,100558.19
2023-05-10T02:44:32.132Z,100554.00
2023-05-10T02:47:00.929Z,100555.19
2023-05-10T02:49:29.018Z,100550.00
2023-05-10T02:52:02.207Z,100549.03
2023-05-10T02:54:35.278Z,100550.00
2023-05-10T02:57:06.231Z,100550.25
2023-05-10T02:59:34.631Z,100553.94
2023-05-10T03:02:03.303Z,100544.31
2023-05-10T03:04:31.469Z,100542.69
2023-05-10T03:07:00.163Z,100540.84
2023-05-10T03:09:28.398Z,100544.53
2023-05-10T03:12:03.723Z,100543.66
2023-05-10T03:14:39.119Z,100543.91
2023-05-10T03:17:13.484Z,100544.13
2023-05-10T03:19:46.022Z,100548.69
2023-05-10T03:22:15.278Z,100539.78
2023-05-10T03:24:44.284Z,100547.91
2023-05-10T03:27:13.947Z,100539.91
2023-05-10T03:29:42.283Z,100546.28
2023-05-10T03:32:10.412Z,100546.41
2023-05-10T03:34:43.629Z,100542.97
2023-05-10T03:37:11.719Z,100544.16
2023-05-10T03:39:39.837Z,100549.56
2023-05-10T03:42:08.136Z,100552.28
2023-05-10T03:44:38.197Z,100544.47
2023-05-10T03:47:06.394Z,100541.03
2023-05-10T03:49:34.569Z,100553.56
2023-05-10T03:52:02.670Z,100541.03
2023-05-10T03:54:30.795Z,100543.72
2023-05-10T03:56:58.882Z,100540.28
2023-05-10T03:59:26.987Z,100548.38
2023-05-10T04:01:56.482Z,100538.44
2023-05-10T04:04:24.778Z,100541.91
2023-05-10T04:06:52.838Z,100540.81
2023-05-10T04:09:20.952Z,100537.03
2023-05-10T04:11:49.034Z,100539.63
2023-05-10T04:14:17.493Z,100536.06
2023-05-10T04:16:45.983Z,100534.97
2023-05-10T04:19:15.534Z,100529.34
2023-05-10T04:21:43.606Z,100533.53
2023-05-10T04:24:13.090Z,100547.91
2023-05-10T04:26:41.636Z,100535.38
2023-05-10T04:29:09.724Z,100535.16
2023-05-10T04:31:38.264Z,100530.16
2023-05-10T04:34:06.345Z,100527.03
2023-05-10T04:36:36.793Z,100526.56
2023-05-10T04:39:05.207Z,100533.56
2023-05-10T04:41:33.492Z,100532.38
2023-05-10T04:44:01.548Z,100529.44
2023-05-10T04:46:29.650Z,100531.03
2023-05-10T04:48:57.827Z,100533.31
2023-05-10T04:51:25.938Z,100533.69
2023-05-10T04:54:05.397Z,100536.16
2023-05-10T04:56:34.933Z,100535.19
2023-05-10T04:59:03.609Z,100548.38
2023-05-10T05:01:31.790Z,100541.50
2023-05-10T05:04:00.320Z,100537.81
2023-05-10T05:06:28.653Z,100541.38
2023-05-10T05:08:58.100Z,100535.13
2023-05-10T05:11:26.447Z,100538.69
2023-05-10T05:13:54.626Z,100538.69
2023-05-10T05:16:22.798Z,100543.63
2023-05-10T05:18:50.928Z,100550.09
2023-05-10T05:21:19.634Z,100539.50
2023-05-10T05:23:48.058Z,100540.41
2023-05-10T05:26:17.610Z,100540.88
2023-05-10T05:28:45.711Z,100543.13
2023-05-10T05:31:14.903Z,100544.28
2023-05-10T05:33:43.090Z,100537.97
2023-05-10T05:36:11.409Z,100538.94
2023-05-10T05:38:39.603Z,100539.00
2023-05-10T05:41:07.691Z,100539.47
2023-05-10T05:43:38.498Z,100539.53
2023-05-10T05:46:07.010Z,100536.06
2023-05-10T05:48:35.148Z,100545.19
2023-05-10T05:51:04.679Z,100537.50
2023-05-10T05:53:34.639Z,100543.06
2023-05-10T05:56:02.842Z,100539.38
2023-05-10T05:58:30.892Z,100545.75
2023-05-10T06:01:00.352Z,100542.66
2023-05-10T06:03:28.504Z,100551.72
2023-05-10T06:05:56.648Z,100545.03
2023-05-10T06:08:24.713Z,100550.84
2023-05-10T06:10:52.785Z,100550.66
2023-05-10T06:13:20.880Z,100548.59
2023-05-10T06:15:48.998Z,100546.59
2023-05-10T06:18:18.458Z,100554.59
2023-05-10T06:20:46.523Z,100548.94
2023-05-10T06:23:14.582Z,100551.91
2023-05-10T06:25:42.744Z,100549.47
2023-05-10T06:28:10.787Z,100555.03
2023-05-10T06:30:39.122Z,100553.19
2023-05-10T06:33:07.254Z,100549.00
2023-05-10T06:35:37.763Z,100543.91
2023-05-10T06:38:05.970Z,100547.97
2023-05-10T06:40:34.091Z,100547.72
2023-05-10T06:43:02.264Z,100551.19
2023-05-10T06:45:30.340Z,100547.44
2023-05-10T06:47:58.458Z,100548.75
2023-05-10T06:50:26.762Z,100547.16
2023-05-10T06:52:56.468Z,100550.03
2023-05-10T06:55:24.657Z,100546.88
2023-05-10T06:57:52.809Z,100558.06
2023-05-10T07:00:21.744Z,100554.88
2023-05-10T07:02:50.093Z,100550.75
2023-05-10T07:05:18.732Z,100544.72
2023-05-10T07:07:47.084Z,100550.75
2023-05-10T07:10:16.697Z,100549.59
2023-05-10T07:12:44.798Z,100552.44
2023-05-10T07:15:13.680Z,100563.75
2023-05-10T07:17:43.204Z,100545.63
2023-05-10T07:20:14.023Z,100559.88
2023-05-10T07:22:42.085Z,100547.19
2023-05-10T07:25:10.479Z,100552.19
2023-05-10T07:27:39.918Z,100550.56
2023-05-10T07:30:09.397Z,100546.28
2023-05-10T07:32:37.552Z,100555.31
2023-05-10T07:35:06.535Z,100551.19
2023-05-10T07:37:34.628Z,100541.56
2023-05-10T07:40:03.038Z,100546.00
2023-05-10T07:42:31.137Z,100538.13
2023-05-10T07:45:02.582Z,100540.69
2023-05-10T07:47:30.633Z,100548.97
2023-05-10T07:49:58.792Z,100549.16
2023-05-10T07:52:26.979Z,100537.69
2023-05-10T07:54:55.711Z,100542.16
2023-05-10T07:57:23.792Z,100548.03
2023-05-10T07:59:51.868Z,100542.47
2023-05-10T08:02:21.353Z,100554.84
2023-05-10T08:04:49.481Z,100550.53
2023-05-10T08:07:17.685Z,100562.00
2023-05-10T08:09:45.782Z,100558.47
2023-05-10T08:12:13.846Z,100554.44
2023-05-10T08:14:41.924Z,100564.44
2023-05-10T08:17:10.929Z,100562.41
2023-05-10T08:19:40.573Z,100562.25
2023-05-10T08:22:08.668Z,100575.66
2023-05-10T08:24:39.329Z,100574.94
2023-05-10T08:27:07.646Z,100582.81
2023-05-10T08:29:49.014Z,100577.59
2023-05-10T08:32:17.999Z,100583.09
2023-05-10T08:34:47.502Z,100579.97
2023-05-10T08:37:15.710Z,100587.28
2023-05-10T08:39:43.800Z,100580.69
2023-05-10T08:42:11.926Z,100578.06
2023-05-10T08:44:40.106Z,100571.91
2023-05-10T08:47:08.943Z,100573.22
2023-05-10T08:49:37.331Z,100576.19
2023-05-10T08:52:08.325Z,100575.06
2023-05-10T08:54:36.602Z,100587.44
2023-05-10T08:57:05.051Z,100576.59
2023-05-10T08:59:34.123Z,100580.75
2023-05-10T09:02:02.571Z,100580.50
2023-05-10T09:04:31.499Z,100580.53
2023-05-10T09:06:59.887Z,100580.88
2023-05-10T09:09:29.530Z,100588.09
2023-05-10T09:11:57.663Z,100583.78
2023-05-10T09:14:26.765Z,100585.44
2023-05-10T09:16:56.307Z,100589.69
2023-05-10T09:19:24.472Z,100585.22
2023-05-10T09:21:52.617Z,100593.13
2023-05-10T09:24:20.784Z,100587.72
2023-05-10T09:26:50.818Z,100588.44
2023-05-10T09:29:18.944Z,100593.25
2023-05-10T09:31:49.128Z,100579.72
2023-05-10T09:34:22.093Z,100583.94
2023-05-10T09:36:57.554Z,100586.16
2023-05-10T09:39:33.922Z,100588.06
2023-05-10T09:42:05.764Z,100597.34
2023-05-10T09:44:34.642Z,100589.78
2023-05-10T09:47:03.438Z,100597.16
2023-05-10T09:49:32.007Z,100603.34
2023-05-10T09:52:03.474Z,100594.69
2023-05-10T09:54:31.840Z,100591.25
2023-05-10T09:56:59.951Z,100596.38
2023-05-10T09:59:30.035Z,100595.50
2023-05-10T10:01:58.839Z,100608.69
2023-05-10T10:04:28.167Z,100603.03
2023-05-10T10:07:04.484Z,100600.75
2023-05-10T10:09:33.063Z,100593.31
2023-05-10T10:12:01.524Z,100599.09
2023-05-10T10:14:31.361Z,100598.34
2023-05-10T10:19:34.857Z,100595.81
2023-05-10T10:22:03.168Z,100600.28
2023-05-10T10:24:31.227Z,100596.38
2023-05-10T10:27:05.365Z,100611.28
2023-05-10T10:29:39.132Z,100606.41
2023-05-10T10:32:13.932Z,100608.16
2023-05-10T10:34:42.181Z,100602.53
2023-05-10T10:37:10.667Z,100609.22
2023-05-10T10:39:38.750Z,100599.66
2023-05-10T10:42:06.979Z,100605.63
2023-05-10T10:44:41.286Z,100600.00
2023-05-10T10:47:25.876Z,100604.78
2023-05-10T10:50:04.471Z,100611.47
2023-05-10T10:52:36.422Z,100599.78
2023-05-10T10:55:09.489Z,100608.72
2023-05-10T10:57:49.472Z,100605.63
2023-05-10T11:00:27.524Z,100607.19
2023-05-10T11:02:58.073Z,100613.50
2023-05-10T11:05:44.712Z,100612.09
2023-05-10T11:08:20.729Z,100610.00
2023-05-10T11:10:53.918Z,100615.44
2023-05-10T11:13:32.406Z,100619.19
2023-05-10T11:16:12.190Z,100621.56
2023-05-10T11:18:40.436Z,100616.59
2023-05-10T11:21:11.642Z,100622.53
2023-05-10T11:24:01.154Z,100623.03
2023-05-10T11:26:33.892Z,100625.97
2023-05-10T11:29:03.207Z,100629.06
2023-05-10T11:31:32.720Z,100633.91
2023-05-10T11:34:02.667Z,100631.84
2023-05-10T11:36:34.272Z,100638.53
2023-05-10T11:39:02.393Z,100638.13
2023-05-10T11:41:31.982Z,100633.91
2023-05-10T11:44:00.835Z,100641.81
2023-05-10T11:46:30.465Z,100644.56
2023-05-10T11:49:05.132Z,100633.97
2023-05-10T11:51:36.776Z,100646.28
2023-05-10T11:54:08.618Z,100656.38
2023-05-10T11:56:36.752Z,100647.66
2023-05-10T11:59:05.925Z,100648.28
2023-05-10T12:01:34.742Z,100652.03
2023-05-10T12:04:04.599Z,100654.84
2023-05-10T12:06:34.912Z,100667.22
2023-05-10T12:09:07.850Z,100680.09
2023-05-10T12:11:44.068Z,100677.75
2023-05-10T12:14:12.773Z,100679.91
2023-05-10T12:16:40.964Z,100688.13
2023-05-10T12:19:10.534Z,100698.16
2023-05-10T12:21:39.880Z,100698.16
2023-05-10T12:24:09.457Z,100709.09
2023-05-10T12:26:37.829Z,100720.59
2023-05-10T12:29:16.625Z,100713.91
2023-05-10T12:31:58.375Z,100720.91
2023-05-10T12:34:29.166Z,100733.16
2023-05-10T12:36:57.586Z,100743.50
2023-05-10T12:39:25.894Z,100745.69
2023-05-10T12:41:54.156Z,100749.97
2023-05-10T12:44:22.269Z,100762.44
2023-05-10T12:46:50.355Z,100755.69
2023-05-10T12:49:19.975Z,100772.00
2023-05-10T12:51:49.483Z,100766.38
2023-05-10T12:54:17.575Z,100771.97
2023-05-10T12:56:45.848Z,100775.72
2023-05-10T12:59:13.938Z,100774.84
2023-05-10T13:01:42.122Z,100779.88
2023-05-10T13:04:10.410Z,100776.13
2023-05-10T13:06:38.616Z,100780.84
2023-05-10T13:09:08.086Z,100785.44
2023-05-10T13:11:36.273Z,100779.13
2023-05-10T13:14:05.245Z,100773.50
2023-05-10T13:16:33.550Z,100774.19
2023-05-10T13:19:01.751Z,100778.78
2023-05-10T13:21:30.042Z,100772.19
2023-05-10T13:23:58.137Z,100783.47
2023-05-10T13:26:27.632Z,100783.47
2023-05-10T13:28:56.594Z,100781.41
2023-05-10T13:31:24.771Z,100782.03
2023-05-10T13:33:52.981Z,100790.91
2023-05-10T13:36:21.102Z,100784.59
2023-05-10T13:38:49.202Z,100781.19
2023-05-10T13:41:17.284Z,100790.09
2023-05-10T13:43:46.855Z,100780.31
2023-05-10T13:46:14.993Z,100786.91
2023-05-10T13:48:43.105Z,100788.91
2023-05-10T13:51:11.247Z,100788.78
2023-05-10T13:53:39.401Z,100785.28
2023-05-10T13:56:08.043Z,100789.44
2023-05-10T13:58:36.791Z,100792.63
2023-05-10T14:01:06.820Z,100784.91
2023-05-10T14:03:35.033Z,100780.03
2023-05-10T14:06:03.512Z,100782.38
2023-05-10T14:08:31.625Z,100780.09
2023-05-10T14:10:59.718Z,100786.44
2023-05-10T14:13:27.819Z,100781.88
2023-05-10T14:15:56.536Z,100786.19
2023-05-10T14:18:26.816Z,100788.34
2023-05-10T14:20:54.993Z,100789.91
2023-05-10T14:23:25.241Z,100790.06
2023-05-10T14:25:53.435Z,100792.78
2023-05-10T14:28:21.895Z,100796.63
2023-05-10T14:30:50.082Z,100787.59
2023-05-10T14:33:19.054Z,100791.78
2023-05-10T14:35:48.921Z,100786.75
2023-05-10T14:38:17.089Z,100795.25
2023-05-10T14:40:45.367Z,100787.66
2023-05-10T14:43:13.495Z,100779.78
2023-05-10T14:45:41.667Z,100780.13
2023-05-10T14:48:13.157Z,100789.03
2023-05-10T14:50:41.239Z,100779.69
2023-05-10T14:53:10.841Z,100786.72
2023-05-10T14:55:39.317Z,100792.47
2023-05-10T14:58:07.454Z,100783.25
2023-05-10T15:00:35.539Z,100782.66
2023-05-10T15:03:04.566Z,100785.38
2023-05-10T15:05:33.246Z,100791.69
2023-05-10T15:08:02.024Z,100789.50
2023-05-10T15:10:33.810Z,100796.13
2023-05-10T15:13:02.503Z,100795.13
2023-05-10T15:15:30.686Z,100801.00
2023-05-10T15:17:58.972Z,100793.56
2023-05-10T15:20:27.136Z,100803.03
2023-05-10T15:22:55.268Z,100807.38
2023-05-10T15:25:24.670Z,100797.63
2023-05-10T15:27:54.147Z,100807.38
2023-05-10T15:30:22.350Z,100803.94
2023-05-10T15:32:50.429Z,100806.50
2023-05-10T15:35:18.996Z,100801.34
2023-05-10T15:37:49.144Z,100812.97
2023-05-10T15:40:17.277Z,100822.03
2023-05-10T15:42:45.460Z,100817.28
2023-05-10T15:45:16.218Z,100816.97
2023-05-10T15:47:45.256Z,100816.81
2023-05-10T15:50:13.500Z,100828.59
2023-05-10T15:52:42.278Z,100827.91
2023-05-10T15:55:13.211Z,100823.16
2023-05-10T15:57:42.635Z,100830.47
2023-05-10T16:00:12.806Z,100831.78
2023-05-10T16:02:42.802Z,100838.66
2023-05-10T16:05:11.252Z,100846.28
2023-05-10T16:07:40.195Z,100833.66
2023-05-10T16:10:10.545Z,100823.75
2023-05-10T16:12:39.020Z,100840.13
2023-05-10T16:15:08.186Z,100844.00
2023-05-10T16:17:37.355Z,100840.72
2023-05-10T16:20:08.463Z,100836.97
2023-05-10T16:22:36.906Z,100838.56
2023-05-10T16:25:05.581Z,100841.69
2023-05-10T16:27:33.713Z,100835.81
2023-05-10T16:30:02.202Z,100843.72
2023-05-10T16:32:30.422Z,100838.66
2023-05-10T16:34:59.935Z,100844.84
2023-05-10T16:37:29.677Z,100842.69
2023-05-10T16:39:57.860Z,100850.72
2023-05-10T16:42:26.134Z,100852.75
2023-05-10T16:44:55.201Z,100858.22
2023-05-10T16:47:23.360Z,100861.81
2023-05-10T16:49:51.516Z,100853.47
2023-05-10T16:52:19.579Z,100865.66
2023-05-10T16:54:49.127Z,100861.34
2023-05-10T16:57:17.365Z,100863.94
2023-05-10T16:59:45.481Z,100868.13
2023-05-10T17:02:13.674Z,100865.50
2023-05-10T17:04:41.874Z,100870.69
2023-05-10T17:07:10.459Z,100867.38
2023-05-10T17:09:38.649Z,100869.69
2023-05-10T17:12:08.226Z,100881.19
2023-05-10T17:14:36.956Z,100878.47
2023-05-10T17:17:05.109Z,100878.47
2023-05-10T17:19:33.267Z,100876.59
2023-05-10T17:22:01.404Z,100876.16
2023-05-10T17:24:29.786Z,100878.16
2023-05-10T17:26:58.435Z,100883.03
2023-05-10T17:29:29.094Z,100892.25
2023-05-10T17:31:57.378Z,100894.25
2023-05-10T17:34:25.549Z,100891.69
2023-05-10T17:36:53.718Z,100897.56
2023-05-10T17:39:21.777Z,100897.28
2023-05-10T17:41:49.884Z,100893.97
2023-05-10T17:44:18.064Z,100901.28
2023-05-10T17:46:47.651Z,100906.03
2023-05-10T17:49:16.228Z,100906.19
2023-05-10T17:51:44.638Z,100906.47
2023-05-10T17:54:12.718Z,100916.69
2023-05-10T17:56:40.781Z,100910.78
2023-05-10T17:59:09.026Z,100916.53
2023-05-10T18:01:37.217Z,100918.25
2023-05-10T18:04:06.782Z,100924.28
2023-05-10T18:06:37.361Z,100918.50
2023-05-10T18:09:07.264Z,100926.84
2023-05-10T18:11:36.184Z,100929.84
2023-05-10T18:14:04.685Z,100930.00
2023-05-10T18:16:32.835Z,100932.00
2023-05-10T18:19:01.234Z,100935.00
2023-05-10T18:21:31.322Z,100936.00
2023-05-10T18:23:59.430Z,100942.03
2023-05-10T18:26:27.784Z,100940.47
2023-05-10T18:28:55.874Z,100938.47
2023-05-10T18:31:24.167Z,100943.16
2023-05-10T18:33:52.486Z,100950.94
2023-05-10T18:36:21.364Z,100948.44
2023-05-10T18:38:50.845Z,100949.50
2023-05-10T18:41:19.330Z,100953.66
2023-05-10T18:43:47.405Z,100958.63
2023-05-10T18:46:15.893Z,100965.19
2023-05-10T18:48:43.989Z,100963.88
2023-05-10T18:51:12.495Z,100967.88
2023-05-10T18:53:40.837Z,100972.44
2023-05-10T18:56:10.368Z,100969.38
2023-05-10T18:58:38.563Z,100981.75
2023-05-10T19:01:06.922Z,100990.94
2023-05-10T19:03:35.050Z,100986.78
2023-05-10T19:06:03.182Z,100987.63
2023-05-10T19:08:31.328Z,100988.63
2023-05-10T19:10:59.446Z,100996.19
2023-05-10T19:13:30.280Z,100999.19
2023-05-10T19:16:04.948Z,101000.41
2023-05-10T19:18:33.321Z,100998.94
2023-05-10T19:21:04.498Z,101005.16
2023-05-10T19:23:33.142Z,101017.41
2023-05-10T19:26:01.504Z,101020.03
2023-05-10T19:28:31.027Z,101017.84
2023-05-10T19:30:59.124Z,101023.63
2023-05-10T19:33:27.268Z,101024.75
2023-05-10T19:35:56.252Z,101034.88
2023-05-10T19:38:24.757Z,101033.28
2023-05-10T19:40:58.054Z,101038.09
2023-05-10T19:43:26.406Z,101037.34
2023-05-10T19:45:56.206Z,101043.06
2023-05-10T19:48:24.321Z,101039.84
2023-05-10T19:50:52.440Z,101043.53
2023-05-10T19:53:20.616Z,101036.63
2023-05-10T19:55:48.840Z,101042.19
2023-05-10T19:58:17.995Z,101047.88
2023-05-10T20:00:46.165Z,101047.00
2023-05-10T20:03:15.723Z,101048.00
2023-05-10T20:05:43.841Z,101046.28
2023-05-10T20:08:11.926Z,101050.84
2023-05-10T20:10:40.072Z,101046.16
2023-05-10T20:13:08.266Z,101057.00
2023-05-10T20:15:36.373Z,101055.16
2023-05-10T20:18:04.796Z,101053.44
2023-05-10T20:20:34.412Z,101049.94
2023-05-10T20:23:02.486Z,101052.78
2023-05-10T20:25:30.584Z,101063.88
2023-05-10T20:27:58.663Z,101064.00
2023-05-10T20:30:26.802Z,101059.56
2023-05-10T20:32:54.904Z,101057.84
2023-05-10T20:35:23.106Z,101063.53
2023-05-10T20:37:52.537Z,101062.75
2023-05-10T20:40:20.638Z,101067.44
2023-05-10T20:42:49.560Z,101062.13
2023-05-10T20:45:17.805Z,101071.41
2023-05-10T20:47:45.922Z,101069.91
2023-05-10T20:50:14.053Z,101068.66
2023-05-10T20:52:42.394Z,101069.16
2023-05-10T20:55:12.747Z,101068.63
2023-05-10T20:57:40.860Z,101080.84
2023-05-10T21:00:10.465Z,101087.25
2023-05-10T21:02:38.557Z,101083.78
2023-05-10T21:05:07.509Z,101089.44
2023-05-10T21:07:35.710Z,101084.16
2023-05-10T21:10:04.187Z,101085.13
2023-05-10T21:12:33.644Z,101086.97
2023-05-10T21:15:01.751Z,101087.09
2023-05-10T21:17:29.816Z,101083.75
2023-05-10T21:19:57.899Z,101078.53
2023-05-10T21:22:26.222Z,101077.69
2023-05-10T21:24:54.312Z,101080.41
2023-05-10T21:27:22.376Z,101086.81
2023-05-10T21:29:52.168Z,101095.19
2023-05-10T21:32:20.255Z,101093.47
2023-05-10T21:34:48.451Z,101087.19
2023-05-10T21:37:16.948Z,101096.19
2023-05-10T21:39:45.067Z,101089.91
2023-05-10T21:42:13.103Z,101089.03
2023-05-10T21:44:41.188Z,101095.56
2023-05-10T21:47:10.643Z,101099.84
2023-05-10T21:49:38.805Z,101103.97
2023-05-10T21:52:07.292Z,101104.44
2023-05-10T21:54:37.270Z,101114.69
2023-05-10T21:57:05.401Z,101112.53
2023-05-10T21:59:33.527Z,101105.81
2023-05-10T22:02:01.751Z,101112.53
2023-05-10T22:04:31.222Z,101118.44
2023-05-10T22:06:59.313Z,101111.41
2023-05-10T22:09:27.512Z,101111.97
2023-05-10T22:11:55.625Z,101114.34
2023-05-10T22:14:24.010Z,101113.63
2023-05-10T22:16:52.272Z,101108.00
2023-05-10T22:19:20.605Z,101109.19
2023-05-10T22:21:50.035Z,101111.56
2023-05-10T22:24:18.431Z,101109.44
2023-05-10T22:26:46.525Z,101118.94
2023-05-10T22:29:14.590Z,101118.53
2023-05-10T22:31:42.714Z,101115.25
2023-05-10T22:34:10.826Z,101118.94
2023-05-10T22:36:38.887Z,101116.34
2023-05-10T22:39:08.371Z,101126.41
2023-05-10T22:41:36.438Z,101125.53
2023-05-10T22:44:05.001Z,101122.84
2023-05-10T22:46:33.544Z,101129.00
2023-05-10T22:49:01.829Z,101136.16
2023-05-10T22:51:29.890Z,101137.13
2023-05-10T22:53:57.939Z,101130.84
2023-05-10T22:56:27.464Z,101133.44
2023-05-10T22:58:55.962Z,101140.38
2023-05-10T23:01:24.061Z,101148.31
2023-05-10T23:03:52.343Z,101146.47
2023-05-10T23:06:20.410Z,101151.22
2023-05-10T23:08:48.461Z,101148.94
2023-05-10T23:11:16.536Z,101148.94
2023-05-10T23:13:45.990Z,101149.06
2023-05-10T23:16:14.154Z,101153.78
2023-05-10T23:18:42.306Z,101152.50
2023-05-10T23:21:10.512Z,101156.41
2023-05-10T23:23:38.598Z,101152.91
2023-05-10T23:26:06.676Z,101147.28
2023-05-10T23:28:34.715Z,101154.22
2023-05-10T23:31:04.227Z,101152.06
2023-05-10T23:33:32.257Z,101144.91
2023-05-10T23:36:00.441Z,101149.34
2023-05-10T23:38:28.486Z,101143.94
2023-05-10T23:40:56.997Z,101147.50
2023-05-10T23:43:25.446Z,101151.09
2023-05-10T23:45:54.816Z,101145.78
2023-05-10T23:48:24.565Z,101147.84
2023-05-10T23:50:52.704Z,101149.03
2023-05-10T23:53:20.948Z,101149.78
2023-05-10T23:55:49.032Z,101161.16
2023-05-10T23:58:17.301Z,101152.63
